Time;durP1;ratioP1;P1;durP2;ratioP2;P2;SDS_P1;SDS_P2;PMS_P1;PMS_P2;Temp;Humidity;BMP_temperature;BMP_pressure;BME280_temperature;BME280_humidity;BME280_pressure;Samples;Min_cycle;Max_cycle;Signal;HPM_P1;HPM_P2
2024/04/03 00:00:42;;;;;;;7.50;1.50;;;10.10;1.00;;;;;;6370744;22;19994;-82
2024/04/03 00:03:07;;;;;;;6.78;1.33;;;10.10;1.00;;;;;;6370011;22;19998;-82
2024/04/03 00:05:33;;;;;;;9.23;1.25;;;10.00;16.10;;;;;;6371063;22;20024;-83
2024/04/03 00:07:59;;;;;;;6.97;1.30;;;9.90;29.70;;;;;;6370255;22;20242;-83
2024/04/03 00:10:25;;;;;;;3.85;1.10;;;10.00;18.00;;;;;;6371250;22;20391;-82
2024/04/03 00:12:51;;;;;;;3.60;1.15;;;10.00;1.00;;;;;;6370742;22;20026;-83
2024/04/03 00:15:16;;;;;;;10.15;1.45;;;10.10;1.00;;;;;;6369301;22;20002;-83
2024/04/03 00:17:42;;;;;;;4.32;1.13;;;10.10;1.00;;;;;;6367876;22;20021;-84
2024/04/03 00:20:09;;;;;;;6.97;1.88;;;10.10;1.00;;;;;;6368269;22;20008;-82
2024/04/03 00:22:35;;;;;;;6.38;1.20;;;10.00;1.00;;;;;;6369613;22;20094;-84
2024/04/03 00:25:01;;;;;;;8.43;1.33;;;10.00;1.00;;;;;;6372907;22;20053;-82
2024/04/03 00:27:26;;;;;;;5.28;1.95;;;10.00;1.00;;;;;;6367428;22;19994;-82
2024/04/03 00:29:52;;;;;;;4.85;1.40;;;10.00;1.00;;;;;;6368850;22;19999;-81
2024/04/03 00:32:17;;;;;;;6.05;1.48;;;10.10;1.00;;;;;;6378813;22;20018;-81
2024/04/03 00:34:43;;;;;;;8.48;1.23;;;10.10;1.00;;;;;;6382733;22;20009;-81
2024/04/03 00:37:09;;;;;;;3.08;0.73;;;10.10;1.00;;;;;;6376243;22;20014;-78
2024/04/03 00:39:34;;;;;;;3.10;0.80;;;10.10;1.00;;;;;;6375219;22;20363;-81
2024/04/03 00:42:01;;;;;;;1.83;0.90;;;10.10;1.00;;;;;;6371485;22;19998;-81
2024/04/03 00:44:27;;;;;;;6.03;1.08;;;10.10;1.00;;;;;;6375359;22;20010;-81
2024/04/03 00:46:52;;;;;;;1.88;0.90;;;10.00;1.00;;;;;;6369909;22;20133;-81
2024/04/03 00:49:21;;;;;;;6.88;0.88;;;10.00;1.00;;;;;;6367716;22;20052;-82
2024/04/03 00:51:48;;;;;;;5.78;1.00;;;9.90;1.00;;;;;;6370442;22;20021;-81
2024/04/03 00:54:15;;;;;;;3.70;1.05;;;10.10;1.00;;;;;;6368455;22;20357;-81
2024/04/03 00:56:41;;;;;;;2.30;1.00;;;10.10;1.00;;;;;;6368181;22;20391;-83
2024/04/03 00:59:07;;;;;;;5.68;0.80;;;10.20;1.00;;;;;;6365094;22;20489;-83
2024/04/03 01:01:33;;;;;;;7.75;1.98;;;10.20;1.00;;;;;;6370076;22;20073;-82
2024/04/03 01:03:58;;;;;;;3.17;0.80;;;10.20;99.90;;;;;;6342303;22;20492;-82
2024/04/03 01:06:24;;;;;;;2.15;0.93;;;10.10;99.90;;;;;;6368992;22;20436;-82
2024/04/03 01:08:50;;;;;;;5.90;1.20;;;10.10;1.00;;;;;;6369722;22;19998;-81
2024/04/03 01:11:17;;;;;;;5.88;0.88;;;10.10;1.00;;;;;;6371098;22;20074;-82
2024/04/03 01:13:43;;;;;;;8.23;0.90;;;10.10;99.90;;;;;;6372108;22;20449;-80
2024/04/03 01:16:09;;;;;;;4.05;0.80;;;10.20;99.90;;;;;;6370084;22;20450;-80
2024/04/03 01:18:36;;;;;;;2.65;0.95;;;10.10;99.90;;;;;;6369691;22;20009;-83
2024/04/03 01:21:02;;;;;;;3.17;0.70;;;10.00;99.90;;;;;;6367826;22;20002;-82
2024/04/03 01:23:28;;;;;;;3.63;1.20;;;10.10;99.90;;;;;;6369990;22;20373;-83
2024/04/03 01:25:54;;;;;;;1.02;0.68;;;10.00;1.00;;;;;;6371508;22;20034;-81
2024/04/03 01:28:21;;;;;;;2.30;0.73;;;10.10;99.90;;;;;;6370064;22;19998;-83
2024/04/03 01:30:47;;;;;;;2.42;0.80;;;10.10;99.90;;;;;;6371657;22;20022;-81
2024/04/03 01:33:13;;;;;;;3.55;1.02;;;10.10;99.90;;;;;;6338547;22;19998;-82
2024/04/03 01:35:39;;;;;;;3.22;0.80;;;10.10;99.90;;;;;;6371489;22;19998;-83
2024/04/03 01:38:04;;;;;;;6.22;1.30;;;10.10;99.90;;;;;;6373702;22;20015;-82
2024/04/03 01:40:30;;;;;;;3.47;0.82;;;10.00;99.90;;;;;;6372306;22;20051;-81
2024/04/03 01:42:56;;;;;;;3.85;0.80;;;10.00;1.00;;;;;;6374138;22;19998;-82
2024/04/03 01:45:22;;;;;;;3.65;1.10;;;9.90;1.00;;;;;;6372932;22;20348;-83
2024/04/03 01:47:47;;;;;;;5.32;0.88;;;9.90;1.00;;;;;;6372454;22;20022;-81
2024/04/03 01:50:19;;;;;;;5.93;0.90;;;9.90;1.00;;;;;;6374252;22;20025;-81
2024/04/03 01:52:45;;;;;;;3.72;1.20;;;9.90;1.00;;;;;;6367837;22;20022;-82
2024/04/03 01:55:10;;;;;;;0.90;0.60;;;9.90;1.00;;;;;;6364253;22;20395;-82
2024/04/03 01:57:36;;;;;;;1.60;0.95;;;9.80;1.00;;;;;;6365976;22;20038;-83
2024/04/03 02:00:02;;;;;;;3.55;1.13;;;9.80;1.00;;;;;;6365257;22;20139;-84
2024/04/03 02:02:27;;;;;;;2.05;0.90;;;9.70;1.00;;;;;;6363616;22;20013;-84
2024/04/03 02:04:53;;;;;;;4.40;0.75;;;9.70;1.00;;;;;;6364461;22;20002;-86
2024/04/03 02:07:18;;;;;;;4.55;0.98;;;9.70;1.00;;;;;;6364137;22;20005;-86
2024/04/03 02:09:44;;;;;;;2.00;0.70;;;9.70;1.00;;;;;;6365050;22;20002;-85
2024/04/03 02:12:10;;;;;;;4.07;1.10;;;9.70;1.00;;;;;;6365424;22;20013;-84
2024/04/03 02:14:35;;;;;;;3.90;0.80;;;9.70;1.00;;;;;;6366865;22;20002;-85
2024/04/03 02:17:01;;;;;;;4.45;1.10;;;9.70;1.00;;;;;;6335713;22;20105;-86
2024/04/03 02:19:27;;;;;;;5.93;1.00;;;9.70;1.00;;;;;;6366663;22;19999;-84
2024/04/03 02:21:52;;;;;;;2.45;0.95;;;9.70;1.00;;;;;;6369338;22;20005;-82
2024/04/03 02:24:18;;;;;;;2.60;0.82;;;9.70;1.00;;;;;;6367109;22;20509;-84
2024/04/03 02:26:44;;;;;;;5.40;1.05;;;9.60;1.00;;;;;;6365876;22;19999;-84
2024/04/03 02:29:13;;;;;;;2.15;0.70;;;9.60;1.00;;;;;;6368091;22;19999;-83
2024/04/03 02:31:39;;;;;;;2.30;1.00;;;9.50;1.00;;;;;;6368910;22;20566;-82
2024/04/03 02:34:04;;;;;;;4.20;0.80;;;9.40;1.00;;;;;;6369469;22;20002;-82
2024/04/03 02:36:30;;;;;;;1.17;0.63;;;9.50;1.00;;;;;;6368606;22;20025;-81
2024/04/03 02:38:56;;;;;;;4.63;0.80;;;9.50;1.00;;;;;;6368013;22;20001;-81
2024/04/03 02:41:21;;;;;;;4.60;1.00;;;9.60;1.00;;;;;;6366384;22;19998;-80
2024/04/03 02:43:47;;;;;;;13.02;2.60;;;9.60;99.90;;;;;;6366441;22;20451;-80
2024/04/03 02:46:13;;;;;;;3.78;1.35;;;9.60;1.00;;;;;;6365968;22;20404;-82
2024/04/03 02:48:38;;;;;;;2.60;0.88;;;9.60;99.90;;;;;;6365202;22;20009;-81
2024/04/03 02:51:06;;;;;;;2.38;1.10;;;9.50;1.00;;;;;;6338850;22;20018;-81
2024/04/03 02:53:32;;;;;;;6.03;0.85;;;9.50;1.00;;;;;;6368194;22;19998;-83
2024/04/03 02:56:08;;;;;;;1.65;0.77;;;9.80;99.90;;;;;;6367254;22;20010;-83
2024/04/03 02:58:34;;;;;;;2.67;0.90;;;9.70;99.90;;;;;;6367966;22;19998;-83
2024/04/03 03:01:04;;;;;;;3.00;0.88;;;9.70;99.90;;;;;;6365181;22;20073;-82
2024/04/03 03:03:30;;;;;;;3.45;1.13;;;9.70;99.90;;;;;;6364991;22;20006;-83
2024/04/03 03:05:57;;;;;;;2.45;0.95;;;9.70;99.90;;;;;;6367319;22;19994;-83
2024/04/03 03:08:24;;;;;;;3.70;1.05;;;9.90;99.90;;;;;;6368478;22;20067;-81
2024/04/03 03:10:50;;;;;;;1.48;0.90;;;9.80;99.90;;;;;;6366999;22;19999;-80
2024/04/03 03:13:15;;;;;;;3.72;1.13;;;9.90;99.90;;;;;;6369919;22;20077;-84
2024/04/03 03:15:41;;;;;;;4.05;1.02;;;10.00;99.90;;;;;;6368372;22;20026;-84
2024/04/03 03:18:07;;;;;;;2.63;0.90;;;10.00;99.90;;;;;;6364041;22;20017;-85
2024/04/03 03:20:32;;;;;;;2.58;0.90;;;9.90;99.90;;;;;;6365805;22;20326;-85
2024/04/03 03:22:58;;;;;;;3.20;1.80;;;10.00;99.90;;;;;;6367009;22;20009;-85
2024/04/03 03:25:23;;;;;;;5.45;1.05;;;9.90;99.90;;;;;;6367848;22;20505;-85
2024/04/03 03:27:49;;;;;;;7.00;0.98;;;9.90;99.90;;;;;;6374598;22;20014;-82
2024/04/03 03:30:15;;;;;;;1.30;0.68;;;9.90;99.90;;;;;;6383479;22;20033;-83
2024/04/03 03:32:40;;;;;;;1.05;0.88;;;10.00;99.90;;;;;;6369873;22;20526;-85
2024/04/03 03:35:06;;;;;;;4.45;1.15;;;9.90;99.90;;;;;;6365794;22;20031;-85
2024/04/03 03:37:32;;;;;;;9.68;0.90;;;9.90;99.90;;;;;;6366281;22;20356;-85
2024/04/03 03:40:00;;;;;;;4.90;0.95;;;9.80;99.90;;;;;;6367261;22;19994;-85
2024/04/03 03:42:26;;;;;;;5.70;1.35;;;9.70;99.90;;;;;;6367469;22;20093;-84
2024/04/03 03:44:52;;;;;;;5.38;1.25;;;9.70;1.00;;;;;;6367420;22;20362;-84
2024/04/03 03:47:17;;;;;;;3.85;1.15;;;9.60;1.00;;;;;;6368680;22;20436;-84
2024/04/03 03:52:36;;;;;;;2.65;0.93;;;9.70;1.00;;;;;;6369211;22;20076;-83
2024/04/03 03:55:02;;;;;;;5.53;0.93;;;9.60;9.80;;;;;;6367717;22;20013;-83
2024/04/03 03:57:31;;;;;;;6.43;1.13;;;9.70;16.40;;;;;;6370538;22;20010;-81
2024/04/03 03:59:57;;;;;;;5.28;1.13;;;9.40;49.40;;;;;;6368118;22;19995;-82
2024/04/03 04:02:24;;;;;;;5.85;1.10;;;9.60;9.90;;;;;;6365976;22;20009;-85
2024/04/03 04:04:51;;;;;;;1.50;0.80;;;9.70;28.30;;;;;;6381715;22;20002;-79
2024/04/03 04:07:21;;;;;;;2.85;0.90;;;9.50;99.90;;;;;;6391154;22;19998;-81
2024/04/03 04:09:50;;;;;;;5.43;1.02;;;9.50;88.10;;;;;;6391889;22;19994;-82
2024/04/03 04:12:17;;;;;;;2.45;0.75;;;9.50;84.70;;;;;;6387951;22;20004;-81
2024/04/03 04:14:48;;;;;;;2.42;0.73;;;9.60;87.10;;;;;;6389162;22;20009;-81
2024/04/03 04:17:15;;;;;;;0.90;0.68;;;9.50;99.90;;;;;;6388405;22;20040;-82
2024/04/03 04:19:40;;;;;;;4.10;1.02;;;9.40;99.90;;;;;;6383144;22;19998;-84
2024/04/03 04:22:06;;;;;;;5.32;0.73;;;9.40;99.90;;;;;;6373294;22;20047;-83
2024/04/03 04:24:33;;;;;;;4.22;1.15;;;9.40;99.90;;;;;;6370196;22;19995;-81
2024/04/03 04:27:01;;;;;;;4.88;1.13;;;9.50;99.90;;;;;;6367485;22;20051;-81
2024/04/03 04:29:27;;;;;;;3.33;0.85;;;9.50;99.90;;;;;;6367174;22;20408;-81
2024/04/03 04:31:53;;;;;;;3.90;0.95;;;9.50;99.90;;;;;;6365765;22;20013;-82
2024/04/03 04:34:19;;;;;;;3.75;0.80;;;9.50;99.90;;;;;;6367710;22;19998;-80
2024/04/03 04:36:44;;;;;;;4.15;0.75;;;9.30;99.90;;;;;;6368056;22;20048;-82
2024/04/03 04:39:10;;;;;;;1.15;0.70;;;9.30;99.90;;;;;;6367627;22;20006;-81
2024/04/03 04:41:36;;;;;;;4.68;0.98;;;9.20;99.90;;;;;;6367566;22;20073;-82
2024/04/03 04:44:02;;;;;;;2.92;0.90;;;9.20;99.90;;;;;;6368474;22;19998;-82
2024/04/03 04:46:28;;;;;;;7.68;1.00;;;9.10;99.90;;;;;;6366628;22;20002;-81
2024/04/03 04:48:53;;;;;;;8.13;1.20;;;9.10;99.90;;;;;;6367297;22;20008;-82
2024/04/03 04:51:21;;;;;;;0.75;0.70;;;9.10;99.90;;;;;;6367720;22;20021;-82
2024/04/03 04:53:46;;;;;;;1.60;0.80;;;9.10;99.90;;;;;;6366843;22;20021;-81
2024/04/03 04:56:12;;;;;;;2.15;0.80;;;9.10;99.90;;;;;;6366265;22;20337;-80
2024/04/03 04:58:37;;;;;;;1.70;1.00;;;9.10;99.90;;;;;;6367039;22;19998;-80
2024/04/03 05:01:05;;;;;;;2.58;0.93;;;9.10;99.90;;;;;;6366020;22;20103;-80
2024/04/03 05:03:32;;;;;;;2.55;0.90;;;9.10;99.90;;;;;;6366318;22;20032;-79
2024/04/03 05:05:58;;;;;;;1.77;1.00;;;9.20;99.90;;;;;;6363150;22;19998;-83
2024/04/03 05:08:24;;;;;;;5.47;0.85;;;9.20;99.90;;;;;;6366098;22;19999;-83
2024/04/03 05:10:56;;;;;;;3.78;0.90;;;9.10;99.90;;;;;;6366329;22;20012;-82
2024/04/03 05:13:24;;;;;;;6.20;0.90;;;9.20;99.90;;;;;;6365948;22;20006;-83
2024/04/03 05:15:49;;;;;;;2.22;0.95;;;9.10;99.90;;;;;;6366734;22;20091;-84
2024/04/03 05:18:15;;;;;;;2.60;1.25;;;9.10;99.90;;;;;;6364990;22;20010;-83
2024/04/03 05:20:41;;;;;;;1.40;0.90;;;9.10;99.90;;;;;;6364390;22;19998;-82
2024/04/03 05:23:07;;;;;;;1.33;0.85;;;9.00;99.90;;;;;;6362496;22;20006;-82
2024/04/03 05:25:33;;;;;;;6.28;0.95;;;9.00;99.90;;;;;;6366198;22;19994;-79
2024/04/03 05:27:58;;;;;;;2.35;0.98;;;9.00;99.90;;;;;;6364811;22;20006;-81
2024/04/03 05:30:27;;;;;;;3.83;1.23;;;8.90;99.90;;;;;;6366166;22;20020;-80
2024/04/03 05:32:53;;;;;;;4.82;0.90;;;8.90;99.90;;;;;;6361971;22;20034;-79
2024/04/03 05:35:19;;;;;;;3.90;0.90;;;8.90;99.90;;;;;;6364838;22;20021;-81
2024/04/03 05:37:45;;;;;;;2.05;0.90;;;9.00;99.90;;;;;;6364455;22;20049;-83
2024/04/03 05:40:11;;;;;;;2.55;1.15;;;9.00;99.90;;;;;;6362022;22;20002;-80
2024/04/03 05:42:37;;;;;;;3.42;1.15;;;8.90;99.90;;;;;;6364469;22;20006;-82
2024/04/03 05:45:03;;;;;;;5.75;1.38;;;9.00;99.90;;;;;;6365726;22;20058;-82
2024/04/03 05:47:29;;;;;;;3.72;1.30;;;9.00;99.90;;;;;;6363812;22;20037;-81
2024/04/03 05:49:55;;;;;;;1.88;1.05;;;9.00;99.90;;;;;;6361847;22;20073;-83
2024/04/03 05:52:22;;;;;;;5.25;1.00;;;9.00;99.90;;;;;;6366049;22;20014;-82
2024/04/03 05:54:48;;;;;;;4.43;1.38;;;9.00;99.90;;;;;;6366022;22;19994;-80
2024/04/03 05:57:16;;;;;;;3.13;1.00;;;9.00;99.90;;;;;;6363118;22;20010;-83
2024/04/03 05:59:42;;;;;;;5.38;1.17;;;9.00;99.90;;;;;;6365640;22;20500;-81
2024/04/03 06:02:08;;;;;;;3.42;1.00;;;9.00;99.90;;;;;;6366927;22;20002;-82
2024/04/03 06:04:34;;;;;;;4.05;1.15;;;9.00;99.90;;;;;;6368347;22;20006;-82
2024/04/03 06:07:00;;;;;;;2.30;0.98;;;9.00;99.90;;;;;;6366376;22;20022;-82
2024/04/03 06:09:26;;;;;;;2.63;0.90;;;9.10;99.90;;;;;;6369009;22;20006;-83
2024/04/03 06:11:51;;;;;;;2.78;0.90;;;9.10;99.90;;;;;;6367965;22;20006;-79
2024/04/03 06:14:17;;;;;;;2.90;0.90;;;9.00;99.90;;;;;;6366372;22;20294;-76
2024/04/03 06:16:43;;;;;;;2.13;1.00;;;9.10;99.90;;;;;;6363516;22;20015;-79
2024/04/03 06:19:12;;;;;;;2.85;1.00;;;9.10;99.90;;;;;;6364670;22;20488;-78
2024/04/03 06:21:38;;;;;;;0.85;0.85;;;9.10;99.90;;;;;;6369106;22;20059;-77
2024/04/03 06:24:06;;;;;;;3.80;0.88;;;9.10;99.90;;;;;;6371838;22;20017;-78
2024/04/03 06:26:35;;;;;;;3.88;1.13;;;9.10;99.90;;;;;;6371156;22;20009;-77
2024/04/03 06:29:01;;;;;;;2.03;1.40;;;9.10;99.90;;;;;;6367623;22;20024;-77
2024/04/03 06:31:27;;;;;;;3.03;1.23;;;9.10;99.90;;;;;;6367382;22;20006;-80
2024/04/03 06:33:55;;;;;;;6.53;1.33;;;9.10;99.90;;;;;;6366068;22;20440;-78
2024/04/03 06:36:21;;;;;;;2.45;1.00;;;9.00;99.90;;;;;;6368442;22;20097;-78
2024/04/03 06:38:47;;;;;;;3.35;0.90;;;9.10;99.90;;;;;;6363408;22;20033;-77
2024/04/03 06:41:12;;;;;;;3.50;1.15;;;9.00;99.90;;;;;;6365170;22;19998;-77
2024/04/03 06:43:38;;;;;;;6.68;1.00;;;9.00;99.90;;;;;;6366389;22;20002;-77
2024/04/03 06:46:04;;;;;;;1.50;1.00;;;9.00;99.90;;;;;;6371212;22;20017;-78
2024/04/03 06:48:30;;;;;;;3.88;0.95;;;9.00;99.90;;;;;;6374834;22;20386;-76
2024/04/03 06:50:56;;;;;;;1.65;0.82;;;9.00;99.90;;;;;;6370355;22;20018;-76
2024/04/03 06:53:22;;;;;;;6.78;1.17;;;9.00;99.90;;;;;;6367570;22;20598;-76
2024/04/03 06:55:55;;;;;;;7.32;1.10;;;9.10;99.90;;;;;;6367254;22;20481;-76
2024/04/03 06:58:21;;;;;;;5.63;1.75;;;9.10;99.90;;;;;;6375132;22;20006;-78
2024/04/03 07:00:47;;;;;;;3.55;1.48;;;9.00;99.90;;;;;;6371777;22;20465;-77
2024/04/03 07:03:13;;;;;;;3.42;1.20;;;9.10;99.90;;;;;;6371324;22;19994;-78
2024/04/03 07:05:39;;;;;;;7.10;1.30;;;9.00;99.90;;;;;;6375059;22;20056;-77
2024/04/03 07:08:06;;;;;;;6.50;1.40;;;9.00;99.90;;;;;;6371539;22;20033;-77
2024/04/03 07:10:31;;;;;;;8.05;1.55;;;9.00;99.90;;;;;;6371730;22;19999;-76
2024/04/03 07:13:00;;;;;;;1.85;1.15;;;9.00;99.90;;;;;;6371549;22;19998;-76
2024/04/03 07:15:26;;;;;;;2.20;1.20;;;9.00;99.90;;;;;;6370906;22;20017;-77
2024/04/03 07:17:52;;;;;;;5.20;1.20;;;9.00;99.90;;;;;;6369663;22;20021;-77
2024/04/03 07:20:18;;;;;;;3.97;1.10;;;9.00;99.90;;;;;;6371915;22;19995;-76
2024/04/03 07:22:43;;;;;;;4.65;1.17;;;9.00;99.90;;;;;;6370530;22;20006;-77
2024/04/03 07:25:11;;;;;;;0.80;0.80;;;9.00;99.90;;;;;;6368472;22;20441;-77
2024/04/03 07:27:43;;;;;;;1.75;0.95;;;9.00;99.90;;;;;;6366488;22;20009;-77
2024/04/03 07:30:09;;;;;;;1.15;1.00;;;9.10;99.90;;;;;;6367883;22;20046;-76
2024/04/03 07:32:35;;;;;;;4.65;1.23;;;9.10;99.90;;;;;;6370872;22;20010;-76
2024/04/03 07:35:01;;;;;;;3.83;1.42;;;9.10;99.90;;;;;;6367915;22;20009;-75
2024/04/03 07:37:26;;;;;;;1.95;1.20;;;9.10;99.90;;;;;;6366178;22;20014;-77
2024/04/03 07:39:52;;;;;;;2.33;1.13;;;9.10;99.90;;;;;;6367217;22;20001;-76
2024/04/03 07:42:17;;;;;;;3.45;1.30;;;9.20;99.90;;;;;;6365961;22;19998;-77
2024/04/03 07:44:43;;;;;;;4.28;1.55;;;9.20;99.90;;;;;;6369125;22;20644;-77
2024/04/03 07:47:09;;;;;;;3.25;1.30;;;9.10;99.90;;;;;;6366041;22;20084;-77
2024/04/03 07:49:35;;;;;;;4.80;1.48;;;9.10;99.90;;;;;;6367289;22;20005;-78
2024/04/03 07:52:00;;;;;;;6.55;1.67;;;9.10;99.90;;;;;;6365965;22;20025;-77
2024/04/03 07:54:26;;;;;;;7.15;1.77;;;9.10;99.90;;;;;;6366210;22;20326;-76
2024/04/03 07:56:51;;;;;;;3.50;1.50;;;9.10;99.90;;;;;;6366080;22;20049;-77
2024/04/03 07:59:17;;;;;;;5.55;1.70;;;9.10;99.90;;;;;;6367134;22;19994;-78
2024/04/03 08:01:44;;;;;;;3.13;1.40;;;9.20;99.90;;;;;;6365368;22;20437;-75
2024/04/03 08:04:09;;;;;;;3.40;1.70;;;9.10;99.90;;;;;;6368223;22;20466;-77
2024/04/03 08:06:35;;;;;;;3.88;1.63;;;9.00;99.90;;;;;;6370412;22;20037;-77
2024/04/03 08:09:01;;;;;;;4.55;1.67;;;9.10;99.90;;;;;;6371232;22;20135;-77
2024/04/03 08:11:26;;;;;;;2.65;1.42;;;9.20;99.90;;;;;;6369655;22;20006;-77
2024/04/03 08:13:52;;;;;;;6.18;1.95;;;9.30;99.90;;;;;;6369933;22;20048;-77
2024/04/03 08:16:18;;;;;;;4.82;1.70;;;9.20;99.90;;;;;;6371333;22;20037;-78
2024/04/03 08:18:44;;;;;;;4.28;1.92;;;9.30;99.90;;;;;;6370661;22;20022;-78
2024/04/03 08:21:10;;;;;;;7.72;1.80;;;9.30;99.90;;;;;;6372780;22;20033;-78
2024/04/03 08:23:36;;;;;;;4.32;1.88;;;9.30;99.90;;;;;;6342689;22;20355;-78
2024/04/03 08:26:08;;;;;;;4.15;2.00;;;9.40;99.90;;;;;;6343055;22;20009;-78
2024/04/03 08:28:35;;;;;;;3.40;2.22;;;9.40;99.90;;;;;;6365027;22;20078;-75
2024/04/03 08:31:01;;;;;;;6.55;2.58;;;9.40;99.90;;;;;;6365615;22;20025;-75
2024/04/03 08:33:27;;;;;;;5.93;2.08;;;9.50;99.90;;;;;;6363097;22;19995;-75
2024/04/03 08:36:02;;;;;;;4.60;1.92;;;9.60;99.90;;;;;;6363572;22;20002;-75
2024/04/03 08:38:28;;;;;;;4.30;1.85;;;9.60;99.90;;;;;;6364812;22;20048;-75
2024/04/03 08:40:56;;;;;;;4.15;2.08;;;9.60;99.90;;;;;;6364407;22;20009;-76
2024/04/03 08:43:26;;;;;;;3.00;1.73;;;9.60;99.90;;;;;;6365042;22;20022;-76
2024/04/03 08:45:54;;;;;;;3.03;2.08;;;9.60;99.90;;;;;;6365353;22;19998;-75
2024/04/03 08:48:22;;;;;;;6.38;2.15;;;9.60;99.90;;;;;;6363886;22;20002;-75
2024/04/03 08:50:55;;;;;;;5.22;2.20;;;9.50;99.90;;;;;;6362703;22;20086;-76
2024/04/03 08:53:24;;;;;;;2.28;1.85;;;9.50;99.90;;;;;;6363682;22;20049;-75
2024/04/03 08:55:54;;;;;;;6.63;2.10;;;9.50;99.90;;;;;;6364057;22;20009;-76
2024/04/03 08:58:21;;;;;;;4.80;1.98;;;9.50;99.90;;;;;;6363230;22;20093;-75
2024/04/03 09:00:48;;;;;;;6.43;2.50;;;9.40;99.90;;;;;;6361637;22;20029;-77
2024/04/03 09:03:14;;;;;;;3.67;1.67;;;9.50;99.90;;;;;;6361884;22;20074;-75
2024/04/03 09:05:41;;;;;;;2.08;1.40;;;9.60;99.90;;;;;;6363032;22;20456;-76
2024/04/03 09:08:09;;;;;;;6.85;1.48;;;9.60;99.90;;;;;;6362643;22;20002;-76
2024/04/03 09:10:38;;;;;;;5.65;1.90;;;9.70;99.90;;;;;;6361351;22;20029;-77
2024/04/03 09:13:11;;;;;;;9.15;1.85;;;9.70;99.90;;;;;;6361093;22;20002;-76
2024/04/03 09:15:36;;;;;;;1.98;1.40;;;9.70;99.90;;;;;;6364024;22;20073;-75
2024/04/03 09:18:04;;;;;;;3.45;1.48;;;9.80;99.90;;;;;;6361817;22;20099;-76
2024/04/03 09:20:30;;;;;;;1.42;1.23;;;9.80;99.90;;;;;;6364782;22;20006;-76
2024/04/03 09:22:57;;;;;;;2.42;1.50;;;9.80;99.90;;;;;;6363036;22;20010;-76
2024/04/03 09:25:29;;;;;;;2.38;1.48;;;9.90;99.90;;;;;;6364262;22;20405;-76
2024/04/03 09:28:03;;;;;;;1.70;1.20;;;9.90;99.90;;;;;;6360475;22;20058;-75
2024/04/03 09:30:36;;;;;;;4.55;1.35;;;9.90;99.90;;;;;;6362251;22;20003;-76
2024/04/03 09:33:04;;;;;;;2.75;1.20;;;9.90;99.90;;;;;;6361715;22;19998;-75
2024/04/03 09:35:35;;;;;;;4.43;1.40;;;9.90;99.90;;;;;;6336703;22;20007;-76
2024/04/03 09:38:01;;;;;;;3.25;1.60;;;9.90;99.90;;;;;;6362672;22;20014;-77
2024/04/03 09:40:29;;;;;;;2.78;1.33;;;10.10;99.90;;;;;;6364643;22;19998;-74
2024/04/03 09:43:11;;;;;;;1.88;1.30;;;10.00;99.90;;;;;;6363989;22;20006;-75
2024/04/03 09:45:37;;;;;;;4.68;1.55;;;10.00;99.90;;;;;;6362605;22;20487;-75
2024/04/03 09:48:08;;;;;;;6.25;1.38;;;10.00;99.90;;;;;;6362189;22;19994;-75
2024/04/03 09:50:41;;;;;;;4.30;1.48;;;10.10;99.90;;;;;;6364490;22;19998;-74
2024/04/03 09:53:12;;;;;;;2.42;1.10;;;10.20;99.90;;;;;;6364500;22;20014;-74
2024/04/03 09:55:39;;;;;;;3.20;1.15;;;10.30;99.90;;;;;;6364959;22;20028;-75
2024/04/03 09:58:13;;;;;;;3.10;1.60;;;10.20;99.90;;;;;;6363957;22;20021;-75
2024/04/03 10:00:40;;;;;;;4.78;1.50;;;10.20;99.90;;;;;;6364750;22;20005;-75
2024/04/03 10:03:27;;;;;;;7.13;1.40;;;10.40;99.90;;;;;;6362700;22;20051;-75
2024/04/03 10:06:13;;;;;;;3.55;1.35;;;10.40;99.90;;;;;;6337572;22;20345;-74
2024/04/03 10:08:42;;;;;;;2.50;1.25;;;10.30;99.90;;;;;;6365610;22;20025;-75
2024/04/03 10:11:10;;;;;;;4.90;1.20;;;10.30;99.90;;;;;;6364979;22;19999;-75
2024/04/03 10:13:38;;;;;;;2.42;1.27;;;10.30;99.90;;;;;;6364283;22;20002;-75
2024/04/03 10:16:06;;;;;;;2.00;1.20;;;10.30;99.90;;;;;;6364018;22;19994;-75
2024/04/03 10:18:36;;;;;;;4.60;1.10;;;10.40;99.90;;;;;;6363145;22;20034;-74
2024/04/03 10:21:02;;;;;;;2.17;1.20;;;10.50;99.90;;;;;;6364169;22;20012;-75
2024/04/03 10:23:28;;;;;;;4.07;1.17;;;10.50;99.90;;;;;;6364296;22;20028;-75
2024/04/03 10:25:55;;;;;;;3.33;1.35;;;10.60;99.90;;;;;;6364091;22;20026;-75
2024/04/03 10:28:20;;;;;;;1.05;0.75;;;10.90;99.90;;;;;;6363779;22;19994;-75
2024/04/03 10:30:56;;;;;;;2.13;1.10;;;10.80;99.90;;;;;;6363921;22;20063;-75
2024/04/03 10:33:22;;;;;;;2.97;1.05;;;10.90;99.90;;;;;;6362416;22;20001;-75
2024/04/03 10:35:49;;;;;;;6.15;0.93;;;10.90;99.90;;;;;;6336831;22;20007;-74
2024/04/03 10:38:14;;;;;;;1.95;1.02;;;10.90;99.90;;;;;;6364621;22;20081;-75
2024/04/03 10:40:40;;;;;;;0.70;0.70;;;11.30;99.90;;;;;;6365005;22;20560;-76
2024/04/03 10:43:06;;;;;;;2.25;0.88;;;11.40;99.90;;;;;;6366561;22;20008;-75
2024/04/03 10:45:31;;;;;;;1.38;0.90;;;11.60;99.90;;;;;;6367070;22;20069;-75
2024/04/03 10:47:57;;;;;;;0.88;0.60;;;11.40;99.90;;;;;;6364266;22;20006;-74
2024/04/03 10:50:23;;;;;;;1.30;0.70;;;11.20;99.90;;;;;;6365938;22;20370;-75
2024/04/03 10:52:51;;;;;;;3.85;0.98;;;11.30;99.90;;;;;;6366236;22;20365;-74
2024/04/03 10:55:20;;;;;;;2.35;0.90;;;11.50;99.90;;;;;;6367043;22;20004;-74
2024/04/03 10:57:52;;;;;;;0.75;0.63;;;11.40;99.90;;;;;;6366581;22;20093;-75
2024/04/03 11:00:20;;;;;;;1.55;0.70;;;11.20;99.90;;;;;;6338226;22;20456;-75
2024/04/03 11:02:46;;;;;;;2.05;0.93;;;11.20;99.90;;;;;;6364483;22;20077;-75
2024/04/03 11:05:14;;;;;;;2.03;0.88;;;11.10;99.90;;;;;;6365879;22;20006;-74
2024/04/03 11:07:42;;;;;;;3.00;0.70;;;11.10;99.90;;;;;;6366637;22;20348;-74
2024/04/03 11:10:12;;;;;;;2.50;0.80;;;11.20;99.90;;;;;;6367212;22;19998;-75
2024/04/03 11:12:38;;;;;;;1.52;0.77;;;11.40;99.90;;;;;;6366493;22;20006;-74
2024/04/03 11:15:06;;;;;;;1.40;0.50;;;11.70;99.90;;;;;;6365718;22;20466;-74
2024/04/03 11:17:32;;;;;;;1.02;0.50;;;11.90;99.90;;;;;;6365554;22;20086;-73
2024/04/03 11:19:57;;;;;;;0.60;0.60;;;12.00;99.90;;;;;;6366260;22;20075;-75
2024/04/03 11:22:23;;;;;;;3.45;0.80;;;12.00;99.90;;;;;;6365760;22;20597;-75
2024/04/03 11:24:48;;;;;;;1.25;0.60;;;11.90;99.90;;;;;;6367744;22;20438;-76
2024/04/03 11:27:15;;;;;;;1.55;0.70;;;11.60;99.90;;;;;;6365521;22;20033;-75
2024/04/03 11:29:41;;;;;;;1.10;0.47;;;11.50;99.90;;;;;;6366055;22;20018;-75
2024/04/03 11:32:08;;;;;;;1.60;0.73;;;11.50;99.90;;;;;;6364039;22;20073;-76
2024/04/03 11:34:35;;;;;;;1.08;0.77;;;11.30;99.90;;;;;;6366377;22;20002;-75
2024/04/03 11:37:00;;;;;;;1.95;0.82;;;11.40;99.90;;;;;;6366218;22;20011;-75
2024/04/03 11:39:30;;;;;;;3.03;0.77;;;11.50;99.90;;;;;;6365470;22;20534;-75
2024/04/03 11:41:59;;;;;;;3.05;0.60;;;11.60;99.90;;;;;;6366502;22;20010;-75
2024/04/03 11:44:25;;;;;;;0.95;0.52;;;11.90;99.90;;;;;;6365253;22;20006;-76
2024/04/03 11:46:51;;;;;;;2.25;0.60;;;12.10;99.90;;;;;;6364074;22;20003;-75
2024/04/03 11:49:16;;;;;;;1.17;0.43;;;12.20;99.90;;;;;;6366207;22;19994;-76
2024/04/03 11:51:42;;;;;;;0.65;0.60;;;12.30;99.90;;;;;;6367286;22;20014;-75
2024/04/03 11:54:08;;;;;;;1.30;0.50;;;11.90;99.90;;;;;;6365373;22;20039;-75
2024/04/03 11:56:33;;;;;;;0.60;0.50;;;11.80;99.90;;;;;;6365776;22;20021;-74
2024/04/03 11:59:00;;;;;;;0.45;0.45;;;11.90;99.90;;;;;;6366055;22;20563;-75
2024/04/03 12:01:26;;;;;;;1.23;0.43;;;11.90;99.90;;;;;;6366569;22;20006;-75
2024/04/03 12:03:52;;;;;;;0.40;0.40;;;12.00;99.90;;;;;;6366366;22;20036;-75
2024/04/03 12:06:17;;;;;;;6.32;1.05;;;11.60;99.90;;;;;;6366137;22;20002;-76
2024/04/03 12:08:49;;;;;;;2.08;0.40;;;11.20;99.90;;;;;;6366972;22;20441;-75
2024/04/03 12:11:16;;;;;;;0.50;0.40;;;11.10;99.90;;;;;;6366443;22;20013;-74
2024/04/03 12:13:41;;;;;;;2.45;0.40;;;11.20;99.90;;;;;;6366089;22;19998;-76
2024/04/03 12:16:07;;;;;;;0.65;0.40;;;11.10;99.90;;;;;;6366168;22;20617;-76
2024/04/03 12:18:37;;;;;;;0.30;0.30;;;11.20;99.90;;;;;;6364947;22;20009;-75
2024/04/03 12:21:09;;;;;;;1.95;0.50;;;11.40;99.90;;;;;;6365604;22;19994;-76
2024/04/03 12:23:35;;;;;;;1.00;0.45;;;11.40;99.90;;;;;;6365401;22;20047;-76
2024/04/03 12:26:04;;;;;;;1.27;0.50;;;11.50;99.90;;;;;;6365322;22;19994;-75
2024/04/03 12:28:29;;;;;;;0.30;0.30;;;11.40;99.90;;;;;;6365396;22;20409;-76
2024/04/03 12:30:55;;;;;;;1.63;0.40;;;11.40;99.90;;;;;;6365359;22;20036;-75
2024/04/03 12:33:21;;;;;;;0.63;0.40;;;11.30;99.90;;;;;;6363740;22;20006;-75
2024/04/03 12:35:47;;;;;;;1.80;0.30;;;11.20;99.90;;;;;;6366334;22;20017;-75
2024/04/03 12:38:13;;;;;;;1.35;0.57;;;11.10;99.90;;;;;;6365379;22;20010;-76
2024/04/03 12:40:39;;;;;;;0.40;0.40;;;11.10;99.90;;;;;;6366121;22;20069;-75
2024/04/03 12:43:05;;;;;;;4.18;0.77;;;11.00;99.90;;;;;;6365248;22;19998;-75
2024/04/03 12:45:32;;;;;;;0.47;0.47;;;11.10;99.90;;;;;;6365830;22;20006;-75
2024/04/03 12:48:04;;;;;;;0.40;0.40;;;11.20;99.90;;;;;;6363652;22;20431;-75
2024/04/03 12:50:30;;;;;;;0.35;0.35;;;11.30;99.90;;;;;;6365586;22;19994;-75
2024/04/03 12:52:56;;;;;;;0.85;0.47;;;11.30;99.90;;;;;;6365563;22;20019;-75
2024/04/03 12:55:22;;;;;;;1.27;0.50;;;11.40;99.90;;;;;;6365729;22;20074;-75